createdAt,value
2023-02-27T00:02:17.084Z,2.95
2023-02-27T00:04:46.864Z,2.78
2023-02-27T00:07:14.089Z,2.55
2023-02-27T00:09:42.351Z,3.78
2023-02-27T00:12:09.538Z,2.40
2023-02-27T00:14:36.844Z,2.60
2023-02-27T00:17:03.924Z,2.80
2023-02-27T00:19:38.340Z,2.72
2023-02-27T00:22:05.470Z,2.47
2023-02-27T00:24:32.338Z,2.55
2023-02-27T00:26:59.981Z,2.85
2023-02-27T00:29:26.826Z,2.85
2023-02-27T00:31:53.644Z,2.60
2023-02-27T00:34:20.578Z,2.67
2023-02-27T00:36:47.331Z,2.65
2023-02-27T00:39:16.587Z,2.53
2023-02-27T00:41:43.733Z,2.92
2023-02-27T00:44:10.837Z,3.03
2023-02-27T00:46:37.659Z,3.33
2023-02-27T00:49:06.977Z,3.05
2023-02-27T00:51:35.483Z,2.72
2023-02-27T00:54:03.726Z,3.00
2023-02-27T00:56:30.856Z,2.58
2023-02-27T00:58:58.222Z,3.63
2023-02-27T01:01:25.352Z,2.97
2023-02-27T01:03:52.631Z,2.42
2023-02-27T01:06:19.456Z,3.03
2023-02-27T01:08:46.275Z,3.55
2023-02-27T01:11:13.462Z,3.00
2023-02-27T01:13:47.924Z,3.13
2023-02-27T01:16:14.979Z,3.33
2023-02-27T01:18:42.880Z,2.90
2023-02-27T01:21:09.629Z,3.03
2023-02-27T01:23:36.371Z,3.38
2023-02-27T01:26:03.698Z,3.08
2023-02-27T01:28:30.632Z,3.05
2023-02-27T01:30:57.634Z,3.25
2023-02-27T01:33:24.506Z,3.45
2023-02-27T01:35:51.589Z,3.17
2023-02-27T01:38:18.440Z,3.40
2023-02-27T01:40:45.603Z,2.55
2023-02-27T01:43:16.744Z,3.55
2023-02-27T01:45:47.861Z,3.28
2023-02-27T01:48:29.440Z,2.97
2023-02-27T01:50:58.511Z,3.17
2023-02-27T01:53:26.221Z,3.58
2023-02-27T01:55:59.819Z,3.15
2023-02-27T01:58:27.318Z,3.63
2023-02-27T02:00:54.686Z,3.00
2023-02-27T02:03:25.837Z,3.63
2023-02-27T02:05:54.443Z,3.33
2023-02-27T02:08:21.929Z,3.60
2023-02-27T02:10:50.190Z,4.15
2023-02-27T02:13:17.475Z,3.50
2023-02-27T02:15:54.663Z,3.40
2023-02-27T02:18:21.459Z,4.22
2023-02-27T02:20:51.258Z,3.50
2023-02-27T02:23:33.542Z,3.58
2023-02-27T02:26:12.918Z,3.40
2023-02-27T02:28:42.912Z,3.05
2023-02-27T02:31:25.232Z,3.20
2023-02-27T02:33:52.288Z,3.75
2023-02-27T02:36:38.250Z,2.95
2023-02-27T02:39:05.223Z,4.30
2023-02-27T02:41:44.150Z,3.75
2023-02-27T02:44:19.665Z,3.63
2023-02-27T02:46:59.644Z,3.83
2023-02-27T02:49:32.687Z,3.92
2023-02-27T02:52:09.216Z,4.45
2023-02-27T02:54:35.979Z,3.88
2023-02-27T02:57:09.307Z,3.60
2023-02-27T02:59:42.173Z,3.25
2023-02-27T03:02:14.115Z,3.80
2023-02-27T03:04:53.599Z,3.83
2023-02-27T03:07:23.156Z,3.65
2023-02-27T03:09:55.412Z,3.47
2023-02-27T03:12:23.638Z,3.38
2023-02-27T03:14:59.420Z,3.15
2023-02-27T03:17:59.453Z,3.58
2023-02-27T03:20:29.474Z,3.90
2023-02-27T03:22:58.198Z,3.50
2023-02-27T03:25:27.121Z,3.63
2023-02-27T03:27:57.587Z,4.45
2023-02-27T03:30:27.792Z,4.10
2023-02-27T03:32:59.097Z,3.97
2023-02-27T03:35:43.813Z,3.58
2023-02-27T03:38:22.660Z,4.03
2023-02-27T03:40:56.587Z,4.68
2023-02-27T03:43:36.170Z,4.35
2023-02-27T03:46:35.655Z,4.25
2023-02-27T03:49:02.798Z,4.00
2023-02-27T03:51:31.572Z,4.10
2023-02-27T03:54:19.904Z,4.80
2023-02-27T03:56:46.710Z,3.83
2023-02-27T03:59:14.878Z,5.20
2023-02-27T04:01:42.556Z,4.45
2023-02-27T04:04:14.688Z,4.47
2023-02-27T04:07:03.211Z,4.57
2023-02-27T04:09:41.533Z,4.80
2023-02-27T04:12:14.266Z,3.97
2023-02-27T04:15:05.030Z,3.78
2023-02-27T04:17:35.080Z,5.03
2023-02-27T04:20:07.205Z,4.35
2023-02-27T04:22:34.049Z,5.22
2023-02-27T04:25:03.903Z,4.90
2023-02-27T04:27:43.237Z,4.53
2023-02-27T04:30:22.385Z,4.82
2023-02-27T04:32:55.108Z,5.57
2023-02-27T04:35:28.044Z,5.25
2023-02-27T04:37:54.834Z,4.80
2023-02-27T04:40:25.129Z,6.20
2023-02-27T04:42:55.215Z,5.07
2023-02-27T04:45:24.054Z,4.80
2023-02-27T04:47:58.192Z,4.85
2023-02-27T04:50:28.275Z,4.30
2023-02-27T04:53:07.324Z,4.70
2023-02-27T04:55:36.378Z,4.22
2023-02-27T04:58:07.370Z,5.13
2023-02-27T05:00:36.122Z,4.57
2023-02-27T05:03:11.337Z,4.53
2023-02-27T05:05:38.390Z,5.15
2023-02-27T05:08:16.601Z,5.05
2023-02-27T05:10:47.319Z,5.40
2023-02-27T05:13:20.602Z,5.18
2023-02-27T05:15:59.834Z,5.00
2023-02-27T05:18:27.000Z,5.63
2023-02-27T05:21:26.729Z,4.72
2023-02-27T05:23:58.654Z,5.85
2023-02-27T05:26:43.870Z,6.85
2023-02-27T05:29:17.419Z,5.60
2023-02-27T05:31:54.427Z,6.70
2023-02-27T05:34:32.282Z,6.43
2023-02-27T05:37:05.663Z,5.80
2023-02-27T05:39:37.456Z,6.95
2023-02-27T05:42:07.905Z,7.30
2023-02-27T05:44:35.702Z,7.00
2023-02-27T05:47:11.276Z,6.75
2023-02-27T05:49:43.165Z,6.85
2023-02-27T05:52:12.083Z,6.88
2023-02-27T05:54:42.258Z,6.55
2023-02-27T05:57:11.251Z,6.07
2023-02-27T05:59:45.923Z,6.28
2023-02-27T06:02:13.000Z,7.38
2023-02-27T06:04:41.302Z,6.60
2023-02-27T06:07:08.650Z,6.50
2023-02-27T06:09:35.575Z,7.03
2023-02-27T06:12:02.606Z,6.88
2023-02-27T06:14:29.537Z,6.80
2023-02-27T06:16:57.344Z,6.75
2023-02-27T06:19:24.157Z,6.80
2023-02-27T06:21:50.960Z,6.75
2023-02-27T06:24:21.221Z,6.65
2023-02-27T06:26:48.915Z,6.13
2023-02-27T06:29:15.807Z,5.93
2023-02-27T06:31:42.579Z,6.70
2023-02-27T06:34:09.580Z,5.90
2023-02-27T06:36:36.434Z,7.07
2023-02-27T06:39:04.850Z,6.88
2023-02-27T06:41:31.661Z,8.35
2023-02-27T06:43:58.540Z,9.60
2023-02-27T06:46:25.695Z,7.63
2023-02-27T06:48:52.742Z,6.18
2023-02-27T06:51:19.672Z,6.50
2023-02-27T06:53:46.702Z,7.05
2023-02-27T06:56:13.811Z,7.78
2023-02-27T06:58:40.674Z,6.75
2023-02-27T07:01:07.521Z,8.50
2023-02-27T07:03:34.518Z,7.22
2023-02-27T07:06:02.463Z,6.35
2023-02-27T07:08:29.358Z,7.22
2023-02-27T07:10:56.323Z,7.35
2023-02-27T07:13:23.356Z,7.13
2023-02-27T07:15:50.603Z,6.72
2023-02-27T07:18:17.526Z,7.13
2023-02-27T07:20:44.419Z,6.38
2023-02-27T07:23:11.224Z,6.05
2023-02-27T07:25:37.984Z,6.47
2023-02-27T07:28:05.136Z,7.70
2023-02-27T07:30:32.236Z,6.93
2023-02-27T07:32:59.367Z,7.78
2023-02-27T07:35:26.429Z,7.25
2023-02-27T07:37:53.639Z,7.15
2023-02-27T07:40:20.698Z,6.82
2023-02-27T07:42:48.553Z,8.07
2023-02-27T07:45:15.755Z,8.65
2023-02-27T07:47:42.643Z,6.93
2023-02-27T07:50:09.969Z,6.97
2023-02-27T07:52:36.848Z,6.70
2023-02-27T07:55:03.860Z,7.25
2023-02-27T07:57:30.645Z,7.95
2023-02-27T07:59:57.579Z,8.30
2023-02-27T08:02:24.381Z,9.80
2023-02-27T08:04:51.871Z,9.32
2023-02-27T08:07:18.828Z,8.93
2023-02-27T08:09:45.693Z,9.25
2023-02-27T08:12:12.544Z,9.13
2023-02-27T08:14:39.765Z,9.95
2023-02-27T08:17:06.639Z,11.60
2023-02-27T08:19:33.593Z,12.32
2023-02-27T08:22:00.944Z,8.70
2023-02-27T08:24:27.834Z,9.55
2023-02-27T08:26:54.715Z,8.57
2023-02-27T08:29:21.631Z,9.27
2023-02-27T08:31:48.912Z,8.50
2023-02-27T08:34:16.734Z,9.45
2023-02-27T08:36:43.784Z,8.15
2023-02-27T08:39:11.271Z,8.57
2023-02-27T08:41:38.160Z,6.88
2023-02-27T08:44:04.992Z,7.22
2023-02-27T08:46:31.884Z,7.95
2023-02-27T08:48:59.202Z,8.32
2023-02-27T08:51:26.647Z,7.10
2023-02-27T08:53:56.015Z,7.40
2023-02-27T08:56:22.842Z,7.65
2023-02-27T08:58:49.613Z,7.82
2023-02-27T09:01:16.520Z,7.40
2023-02-27T09:03:43.679Z,7.68
2023-02-27T09:06:10.432Z,6.70
2023-02-27T09:08:37.382Z,7.28
2023-02-27T09:11:05.530Z,7.30
2023-02-27T09:13:32.472Z,6.80
2023-02-27T09:15:59.335Z,6.97
2023-02-27T09:18:27.708Z,7.70
2023-02-27T09:20:56.472Z,7.95
2023-02-27T09:23:23.651Z,7.07
2023-02-27T09:25:50.542Z,6.78
2023-02-27T09:28:17.490Z,7.50
2023-02-27T09:30:44.614Z,6.97
2023-02-27T09:33:11.491Z,7.03
2023-02-27T09:35:38.465Z,6.93
2023-02-27T09:38:05.525Z,7.25
2023-02-27T09:40:33.397Z,7.45
2023-02-27T09:43:02.536Z,21.75
2023-02-27T09:45:39.048Z,10.90
2023-02-27T09:48:08.832Z,10.27
2023-02-27T09:50:40.122Z,7.53
2023-02-27T09:53:12.534Z,6.75
2023-02-27T09:55:40.812Z,14.98
2023-02-27T09:58:20.317Z,8.32
2023-02-27T10:01:00.339Z,18.73
2023-02-27T10:03:30.279Z,10.43
2023-02-27T10:05:57.014Z,20.50
2023-02-27T10:08:30.720Z,9.60
2023-02-27T10:11:01.037Z,10.77
2023-02-27T10:13:46.702Z,8.73
2023-02-27T10:16:15.498Z,7.28
2023-02-27T10:18:51.714Z,7.35
2023-02-27T10:21:21.053Z,12.35
2023-02-27T10:23:53.980Z,7.78
2023-02-27T10:26:22.257Z,8.23
2023-02-27T10:28:52.437Z,11.18
2023-02-27T10:31:22.487Z,5.35
2023-02-27T10:33:49.805Z,5.70
2023-02-27T10:36:32.558Z,6.68
2023-02-27T10:39:07.098Z,6.32
2023-02-27T10:41:35.454Z,6.15
2023-02-27T10:44:02.660Z,4.50
2023-02-27T10:46:31.609Z,5.35
2023-02-27T10:49:00.247Z,5.00
2023-02-27T10:51:31.713Z,6.60
2023-02-27T10:54:21.118Z,5.55
2023-02-27T10:56:50.451Z,15.00
2023-02-27T10:59:19.292Z,6.60
2023-02-27T11:01:50.244Z,12.18
2023-02-27T11:04:26.274Z,10.00
2023-02-27T11:06:53.899Z,6.90
2023-02-27T11:09:26.743Z,3.83
2023-02-27T11:11:54.093Z,4.90
2023-02-27T11:14:27.848Z,4.82
2023-02-27T11:16:58.252Z,5.85
2023-02-27T11:19:25.201Z,4.78
2023-02-27T11:22:13.698Z,3.90
2023-02-27T11:24:40.567Z,4.25
2023-02-27T11:27:26.801Z,4.20
2023-02-27T11:29:57.103Z,4.75
2023-02-27T11:32:25.503Z,3.67
2023-02-27T11:34:52.992Z,3.83
2023-02-27T11:37:19.806Z,4.50
2023-02-27T11:39:51.639Z,6.35
2023-02-27T11:42:29.093Z,8.13
2023-02-27T11:45:07.135Z,5.90
2023-02-27T11:47:35.617Z,3.50
2023-02-27T11:50:09.118Z,3.63
2023-02-27T11:52:45.287Z,3.15
2023-02-27T11:55:18.172Z,2.17
2023-02-27T11:57:46.909Z,2.28
2023-02-27T12:00:19.865Z,4.25
2023-02-27T12:02:53.056Z,4.05
2023-02-27T12:05:24.527Z,4.35
2023-02-27T12:07:55.095Z,2.22
2023-02-27T12:10:24.854Z,2.17
2023-02-27T12:13:14.714Z,7.55
2023-02-27T12:15:47.177Z,2.10
2023-02-27T12:18:17.390Z,2.45
2023-02-27T12:21:07.653Z,2.00
2023-02-27T12:23:38.786Z,2.80
2023-02-27T12:26:22.067Z,3.15
2023-02-27T12:28:58.054Z,1.75
2023-02-27T12:31:37.482Z,2.75
2023-02-27T12:34:29.426Z,2.25
2023-02-27T12:37:01.133Z,2.28
2023-02-27T12:42:01.972Z,2.22
2023-02-27T12:44:41.829Z,1.83
2023-02-27T12:47:15.373Z,3.58
2023-02-27T12:49:48.356Z,2.50
2023-02-27T12:52:21.324Z,2.45
2023-02-27T12:55:06.731Z,3.40
2023-02-27T12:57:49.009Z,1.90
2023-02-27T13:00:15.937Z,2.63
2023-02-27T13:02:54.766Z,2.33
2023-02-27T13:05:24.806Z,1.90
2023-02-27T13:07:58.029Z,3.30
2023-02-27T13:10:31.517Z,3.97
2023-02-27T13:13:08.776Z,2.80
2023-02-27T13:15:49.531Z,1.70
2023-02-27T13:18:21.509Z,1.83
2023-02-27T13:20:53.879Z,1.73
2023-02-27T13:23:26.724Z,2.00
2023-02-27T13:25:55.433Z,3.65
2023-02-27T13:28:26.570Z,1.90
2023-02-27T13:30:56.417Z,2.83
2023-02-27T13:33:26.089Z,3.35
2023-02-27T13:35:56.067Z,11.50
2023-02-27T13:38:34.167Z,2.30
2023-02-27T13:41:19.608Z,2.10
2023-02-27T13:44:09.527Z,2.58
2023-02-27T13:46:36.458Z,1.88
2023-02-27T13:49:09.159Z,1.70
2023-02-27T13:51:36.173Z,3.40
2023-02-27T13:54:09.862Z,1.88
2023-02-27T13:56:36.762Z,2.17
2023-02-27T13:59:30.601Z,1.90
2023-02-27T14:01:57.503Z,2.03
2023-02-27T14:04:26.643Z,1.80
2023-02-27T14:07:01.656Z,1.90
2023-02-27T14:09:34.477Z,1.67
2023-02-27T14:12:02.645Z,2.00
2023-02-27T14:14:46.629Z,3.13
2023-02-27T14:17:34.704Z,1.80
2023-02-27T14:20:04.858Z,2.30
2023-02-27T14:22:33.776Z,1.73
2023-02-27T14:25:24.152Z,2.03
2023-02-27T14:27:54.728Z,1.73
2023-02-27T14:30:26.664Z,1.83
2023-02-27T14:33:01.644Z,1.50
2023-02-27T14:35:29.554Z,1.30
2023-02-27T14:37:56.597Z,1.75
2023-02-27T14:40:30.039Z,1.27
2023-02-27T14:43:03.647Z,1.60
2023-02-27T14:45:31.540Z,1.55
2023-02-27T14:47:58.581Z,1.35
2023-02-27T14:50:27.769Z,1.35
2023-02-27T14:52:54.977Z,1.85
2023-02-27T14:55:30.487Z,1.92
2023-02-27T14:57:59.408Z,1.98
2023-02-27T15:00:34.888Z,1.58
2023-02-27T15:03:11.023Z,1.70
2023-02-27T15:05:41.595Z,2.08
2023-02-27T15:08:13.715Z,2.03
2023-02-27T15:10:42.840Z,2.30
2023-02-27T15:13:19.942Z,1.67
2023-02-27T15:15:52.343Z,2.65
2023-02-27T15:18:23.051Z,2.28
2023-02-27T15:20:59.665Z,2.53
2023-02-27T15:23:28.098Z,2.97
2023-02-27T15:25:59.203Z,2.00
2023-02-27T15:28:30.718Z,2.00
2023-02-27T15:30:57.996Z,1.85
2023-02-27T15:33:34.888Z,1.70
2023-02-27T15:36:09.240Z,1.60
2023-02-27T15:38:39.434Z,1.80
2023-02-27T15:41:06.651Z,1.85
2023-02-27T15:43:35.474Z,2.47
2023-02-27T15:46:03.575Z,2.55
2023-02-27T15:48:40.024Z,2.15
2023-02-27T15:51:23.321Z,2.25
2023-02-27T15:53:56.848Z,1.80
2023-02-27T15:56:38.458Z,1.98
2023-02-27T16:01:36.530Z,2.03
2023-02-27T16:04:09.783Z,2.45
2023-02-27T16:06:40.846Z,2.83
2023-02-27T16:09:38.854Z,1.83
2023-02-27T16:12:34.137Z,2.45
2023-02-27T16:15:23.674Z,2.72
2023-02-27T16:17:57.068Z,2.25
2023-02-27T16:20:31.397Z,1.85
2023-02-27T16:23:09.687Z,1.88
2023-02-27T16:25:37.680Z,2.28
2023-02-27T16:28:04.994Z,1.90
2023-02-27T16:30:32.738Z,2.15
2023-02-27T16:33:03.560Z,1.27
2023-02-27T16:35:36.917Z,1.75
2023-02-27T16:38:18.700Z,1.48
2023-02-27T16:46:55.864Z,1.50
2023-02-27T16:49:33.505Z,1.20
2023-02-27T16:52:19.410Z,1.20
2023-02-27T16:57:54.728Z,1.80
2023-02-27T17:00:29.045Z,1.73
2023-02-27T17:03:26.290Z,1.50
2023-02-27T17:05:58.751Z,4.93
2023-02-27T17:08:29.376Z,2.42
2023-02-27T17:10:58.262Z,1.80
2023-02-27T17:13:31.642Z,2.25
2023-02-27T17:16:02.128Z,2.38
2023-02-27T17:18:37.543Z,2.08
2023-02-27T17:21:23.107Z,2.78
2023-02-27T17:23:56.404Z,2.28
2023-02-27T17:26:35.419Z,2.20
2023-02-27T17:29:03.508Z,2.55
2023-02-27T17:31:31.254Z,2.45
2023-02-27T17:34:05.152Z,3.13
2023-02-27T17:36:35.793Z,3.65
2023-02-27T17:39:07.065Z,3.38
2023-02-27T17:41:39.512Z,3.58
2023-02-27T17:44:29.424Z,3.30
2023-02-27T17:46:59.116Z,2.63
2023-02-27T17:49:25.973Z,2.75
2023-02-27T17:51:52.931Z,3.30
2023-02-27T17:54:19.833Z,4.60
2023-02-27T17:56:47.125Z,3.75
2023-02-27T17:59:14.097Z,3.45
2023-02-27T18:01:41.018Z,3.90
2023-02-27T18:04:11.630Z,3.95
2023-02-27T18:06:38.885Z,4.00
2023-02-27T18:09:05.742Z,3.95
2023-02-27T18:11:32.667Z,4.53
2023-02-27T18:14:00.460Z,4.32
2023-02-27T18:16:27.568Z,6.72
2023-02-27T18:18:54.811Z,7.00
2023-02-27T18:21:23.072Z,5.78
2023-02-27T18:23:51.080Z,5.97
2023-02-27T18:26:28.894Z,4.15
2023-02-27T18:29:07.571Z,4.70
2023-02-27T18:31:40.152Z,4.28
2023-02-27T18:34:10.582Z,5.45
2023-02-27T18:36:40.832Z,4.45
2023-02-27T18:39:09.709Z,3.95
2023-02-27T18:41:45.063Z,4.30
2023-02-27T18:44:24.997Z,3.03
2023-02-27T18:46:55.604Z,3.10
2023-02-27T18:49:29.691Z,3.30
2023-02-27T18:52:14.759Z,2.28
2023-02-27T18:54:43.247Z,2.95
2023-02-27T18:57:25.306Z,2.80
2023-02-27T19:00:04.272Z,4.40
2023-02-27T19:02:37.227Z,3.00
2023-02-27T19:05:04.519Z,3.53
2023-02-27T19:07:31.455Z,4.13
2023-02-27T19:09:58.366Z,3.85
2023-02-27T19:12:26.073Z,4.45
2023-02-27T19:14:55.032Z,3.97
2023-02-27T19:17:22.230Z,4.35
2023-02-27T19:19:49.594Z,5.20
2023-02-27T19:22:16.426Z,4.53
2023-02-27T19:24:44.407Z,5.22
2023-02-27T19:27:12.097Z,5.93
2023-02-27T19:29:38.924Z,5.15
2023-02-27T19:32:07.642Z,5.72
2023-02-27T19:34:34.620Z,6.45
2023-02-27T19:37:01.641Z,5.97
2023-02-27T19:39:28.398Z,5.57
2023-02-27T19:41:55.314Z,6.15
2023-02-27T19:44:22.123Z,5.03
2023-02-27T19:46:51.530Z,5.25
2023-02-27T19:49:19.770Z,3.97
2023-02-27T19:51:46.702Z,4.10
2023-02-27T19:54:15.041Z,3.78
2023-02-27T19:56:42.252Z,4.40
2023-02-27T19:59:10.530Z,4.75
2023-02-27T20:01:38.980Z,6.32
2023-02-27T20:04:06.843Z,5.65
2023-02-27T20:06:42.284Z,5.18
2023-02-27T20:09:10.370Z,4.22
2023-02-27T20:11:37.526Z,3.60
2023-02-27T20:14:04.861Z,3.20
2023-02-27T20:16:35.541Z,2.95
2023-02-27T20:19:06.109Z,2.55
2023-02-27T20:21:33.830Z,3.75
2023-02-27T20:24:00.805Z,2.70
2023-02-27T20:26:27.848Z,2.90
2023-02-27T20:28:56.574Z,3.13
2023-02-27T20:31:24.565Z,2.72
2023-02-27T20:33:51.581Z,1.98
2023-02-27T20:36:18.457Z,2.00
2023-02-27T20:38:45.480Z,3.63
2023-02-27T20:41:13.788Z,3.47
2023-02-27T20:43:42.931Z,3.95
2023-02-27T20:46:18.447Z,3.05
2023-02-27T20:48:45.697Z,3.10
2023-02-27T20:51:16.433Z,3.35
2023-02-27T20:53:45.230Z,2.85
2023-02-27T20:56:12.318Z,2.95
2023-02-27T20:58:39.400Z,2.95
2023-02-27T21:01:09.906Z,3.20
2023-02-27T21:03:39.197Z,3.45
2023-02-27T21:06:07.307Z,9.63
2023-02-27T21:08:41.079Z,9.98
2023-02-27T21:11:08.215Z,10.48
2023-02-27T21:13:36.217Z,12.88
2023-02-27T21:16:04.489Z,13.45
2023-02-27T21:18:31.326Z,12.75
2023-02-27T21:21:02.490Z,13.32
2023-02-27T21:23:29.318Z,9.32
2023-02-27T21:25:56.191Z,10.30
2023-02-27T21:28:23.085Z,10.10
2023-02-27T21:30:54.421Z,9.30
2023-02-27T21:33:22.378Z,7.97
2023-02-27T21:35:49.596Z,6.25
2023-02-27T21:38:17.022Z,5.10
2023-02-27T21:40:43.851Z,6.57
2023-02-27T21:43:10.638Z,6.65
2023-02-27T21:45:41.743Z,6.85
2023-02-27T21:48:08.620Z,4.88
2023-02-27T21:50:36.692Z,4.30
2023-02-27T21:53:03.563Z,3.63
2023-02-27T21:55:30.708Z,3.45
2023-02-27T21:57:57.550Z,3.65
2023-02-27T22:00:27.866Z,4.00
2023-02-27T22:02:54.819Z,4.80
2023-02-27T22:05:21.660Z,3.70
2023-02-27T22:07:49.870Z,3.72
2023-02-27T22:10:16.699Z,4.10
2023-02-27T22:12:43.505Z,4.43
2023-02-27T22:15:10.674Z,4.05
2023-02-27T22:17:37.426Z,3.63
2023-02-27T22:20:06.968Z,3.17
2023-02-27T22:22:33.780Z,3.53
2023-02-27T22:25:00.630Z,3.63
2023-02-27T22:27:27.885Z,3.53
2023-02-27T22:29:55.072Z,3.92
2023-02-27T22:32:21.915Z,3.47
2023-02-27T22:34:49.567Z,3.58
2023-02-27T22:37:19.290Z,3.60
2023-02-27T22:39:46.093Z,3.95
2023-02-27T22:42:13.739Z,3.95
2023-02-27T22:44:40.589Z,4.68
2023-02-27T22:47:07.401Z,4.07
2023-02-27T22:49:34.191Z,4.45
2023-02-27T22:52:01.279Z,4.25
2023-02-27T22:54:28.069Z,6.28
2023-02-27T22:56:57.943Z,4.75
2023-02-27T22:59:25.784Z,5.75
2023-02-27T23:01:54.039Z,5.05
2023-02-27T23:04:22.190Z,5.45
2023-02-27T23:06:52.555Z,5.65
2023-02-27T23:09:21.040Z,5.10
2023-02-27T23:11:48.224Z,5.05
2023-02-27T23:14:15.007Z,4.65
2023-02-27T23:16:45.719Z,5.35
2023-02-27T23:19:17.783Z,5.80
2023-02-27T23:21:45.101Z,5.40
2023-02-27T23:24:13.774Z,5.30
2023-02-27T23:26:41.880Z,5.22
2023-02-27T23:29:09.103Z,5.60
2023-02-27T23:31:36.970Z,6.97
2023-02-27T23:34:07.393Z,6.93
2023-02-27T23:36:34.914Z,5.50
2023-02-27T23:39:03.001Z,6.90
2023-02-27T23:41:30.247Z,6.18
2023-02-27T23:44:15.802Z,5.10
2023-02-27T23:46:42.620Z,3.25
2023-02-27T23:49:09.453Z,3.80
2023-02-27T23:51:36.776Z,3.95
2023-02-27T23:54:03.885Z,3.80
2023-02-27T23:56:31.023Z,3.55
2023-02-27T23:59:01.981Z,3.55
